»·PEaware :: N454FX KSAN-KLAX

N454FX :: KSAN-KLAX

FLIGHT INFORMATION

Flight Status: Arrived
Operator: Privately registered:
United States
More flights under this callsign
Pilot: Mike V. (15104)
Aircraft: CESSNA 172 SKYHAWK
(C172)
More flights by this aircraft type
Origin: KSAN San Diego Intl-Lindbergh
United States
Destination: KLAX Los Angeles Intl
United States
More flights between these airports :: More routes between these airports
Route: +
File this flight plan on PilotEdge
Remarks: FF
Altitude:
(Current/Filed)
5,500ft
Speed:
(Current/Filed)
0kts
Departed: 04-Dec-17 09:39 PM
Arrived: 04-Dec-17 10:32 PM
Distance/Time
Traveled:
94nm/0:53
Distance/Time
To Go:
Arrived

Flight Plot

Page will automatically refresh every two minutes.


Map Options




Map Legend


Flown Route
Filed Route
Departure Airport
Arrival Airport
Navaid (VOR, NDB)
Fix

Horizontal Profiles

Position Reports

Time Latitude Longitude Heading Altitude Ground
Speed
04-Dec-17 21:25 32.733338 -117.204940 279 10ft 0kts
04-Dec-17 21:26 32.733338 -117.204940 279 10ft 0kts
04-Dec-17 21:27 32.733338 -117.204940 279 10ft 0kts
04-Dec-17 21:28 32.733338 -117.204940 279 10ft 0kts
04-Dec-17 21:29 32.733338 -117.204940 279 10ft 0kts
04-Dec-17 21:30 32.733338 -117.204940 279 10ft 0kts
04-Dec-17 21:31 32.733338 -117.204940 279 10ft 0kts
04-Dec-17 21:32 32.733338 -117.204940 279 10ft 0kts
04-Dec-17 21:33 32.734308 -117.205076 7 10ft 10kts
04-Dec-17 21:34 32.734927 -117.203951 103 12ft 5kts
04-Dec-17 21:35 32.735144 -117.202315 52 13ft 2kts
04-Dec-17 21:36 32.734249 -117.198318 109 16ft 15kts
04-Dec-17 21:37 32.733258 -117.192698 105 16ft 36kts
04-Dec-17 21:38 32.729830 -117.178534 110 15ft 23kts
04-Dec-17 21:39 32.729546 -117.176555 67 16ft 0kts
04-Dec-17 21:40 32.729546 -117.176555 67 16ft 0kts
04-Dec-17 21:41 32.729546 -117.176555 67 16ft 0kts
04-Dec-17 21:42 32.729546 -117.176555 67 16ft 0kts
04-Dec-17 21:43 32.729557 -117.176522 67 16ft 1kts
04-Dec-17 21:44 32.732505 -117.185776 282 199ft 77kts
04-Dec-17 21:45 32.737296 -117.212475 287 1070ft 93kts
04-Dec-17 21:46 32.757279 -117.236078 325 1511ft 124kts
04-Dec-17 21:47 32.782112 -117.260280 316 2214ft 93kts
04-Dec-17 21:48 32.802068 -117.282609 325 2805ft 112kts
04-Dec-17 21:49 32.831533 -117.305689 321 2619ft 130kts
04-Dec-17 21:50 32.861617 -117.333300 321 2015ft 126kts
04-Dec-17 21:51 32.887486 -117.358122 321 2103ft 119kts
04-Dec-17 21:52 32.912663 -117.382218 321 2277ft 113kts
04-Dec-17 21:53 32.932611 -117.402249 320 3032ft 97kts
04-Dec-17 21:54 32.954288 -117.427046 322 3449ft 119kts
04-Dec-17 21:55 32.983864 -117.452558 324 3116ft 141kts
04-Dec-17 21:56 33.008453 -117.477575 320 3877ft 114kts
04-Dec-17 21:57 33.031147 -117.502627 329 4439ft 112kts
04-Dec-17 21:58 33.053093 -117.525935 309 5180ft 100kts
04-Dec-17 21:59 33.076733 -117.546479 337 5613ft 113kts
04-Dec-17 22:00 33.102802 -117.569025 325 5988ft 116kts
04-Dec-17 22:01 33.128882 -117.593156 321 6286ft 120kts
04-Dec-17 22:02 33.153943 -117.619748 318 6557ft 121kts
04-Dec-17 22:03 33.179802 -117.645378 317 6821ft 121kts
04-Dec-17 22:04 33.204876 -117.672108 320 7054ft 122kts
04-Dec-17 22:05 33.230874 -117.697941 313 7281ft 122kts
04-Dec-17 22:06 33.256543 -117.724124 316 7473ft 123kts
04-Dec-17 22:07 33.283251 -117.750019 320 7381ft 121kts
04-Dec-17 22:08 33.311949 -117.770733 354 7197ft 128kts
04-Dec-17 22:09 33.346666 -117.771068 337 6902ft 133kts
04-Dec-17 22:10 33.359912 -117.803138 270 6977ft 127kts
04-Dec-17 22:11 33.357888 -117.823036 319 6572ft 118kts
04-Dec-17 22:12 33.380119 -117.853083 315 6562ft 125kts
04-Dec-17 22:13 33.407222 -117.880415 332 6545ft 123kts
04-Dec-17 22:14 33.431977 -117.903166 319 6591ft 125kts
04-Dec-17 22:15 33.459390 -117.930139 309 6290ft 127kts
04-Dec-17 22:16 33.481586 -117.963120 318 6037ft 127kts
04-Dec-17 22:17 33.507854 -117.990267 319 5954ft 119kts
04-Dec-17 22:18 33.532916 -118.017688 321 5879ft 118kts
04-Dec-17 22:19 33.553915 -118.049332 312 5457ft 128kts
04-Dec-17 22:20 33.579229 -118.077341 321 4965ft 123kts
04-Dec-17 22:21 33.599958 -118.098750 322 5221ft 98kts
04-Dec-17 22:22 33.621439 -118.124782 303 4919ft 110kts
04-Dec-17 22:23 33.642238 -118.154482 323 4456ft 120kts
04-Dec-17 22:24 33.666359 -118.179390 313 4317ft 109kts
04-Dec-17 22:25 33.688971 -118.206683 314 3924ft 118kts
04-Dec-17 22:26 33.711000 -118.235919 310 3578ft 117kts
04-Dec-17 22:27 33.737891 -118.256967 356 2562ft 133kts
04-Dec-17 22:28 33.769447 -118.263089 350 2269ft 107kts
04-Dec-17 22:29 33.793755 -118.267947 351 2235ft 106kts
04-Dec-17 22:30 33.823338 -118.273315 352 2119ft 110kts
04-Dec-17 22:31 33.853659 -118.278961 351 1973ft 110kts
04-Dec-17 22:32 33.883374 -118.284615 352 1905ft 108kts
04-Dec-17 22:33 33.917930 -118.291927 345 1790ft 109kts
04-Dec-17 22:34 33.939107 -118.307519 325 1734ft 106kts
04-Dec-17 22:35 33.941687 -118.340373 264 1361ft 100kts
04-Dec-17 22:36 33.938472 -118.372193 265 604ft 68kts
04-Dec-17 22:37 33.936827 -118.387908 267 98ft 20kts
04-Dec-17 22:38 33.935737 -118.390862 135 101ft 0kts
04-Dec-17 22:39 33.935244 -118.389283 149 99ft 11kts

Navigation Log

Ident Type
1. KSAN Airport
2. KLAX Airport